Time;durP1;ratioP1;P1;durP2;ratioP2;P2;SDS_P1;SDS_P2;PMS_P1;PMS_P2;Temp;Humidity;BMP_temperature;BMP_pressure;BME280_temperature;BME280_humidity;BME280_pressure;Samples;Min_cycle;Max_cycle;Signal;HPM_P1;HPM_P2
2020/12/30 00:00:42;;;;;;;5.47;3.40;;;16.20;64.00;;;;;;10502148;28;20033;-58
2020/12/30 00:05:43;;;;;;;5.82;3.85;;;16.10;64.00;;;;;;10503096;28;20040;-59
2020/12/30 00:10:45;;;;;;;6.93;3.90;;;16.10;63.90;;;;;;10503100;28;20029;-59
2020/12/30 00:15:46;;;;;;;7.03;4.32;;;16.10;64.00;;;;;;10502412;28;20044;-59
2020/12/30 00:20:46;;;;;;;5.38;3.28;;;16.00;64.10;;;;;;10502865;28;20478;-59
2020/12/30 00:25:47;;;;;;;5.22;3.75;;;16.00;64.10;;;;;;10501689;28;20062;-59
2020/12/30 00:30:48;;;;;;;5.70;4.38;;;16.10;69.80;;;;;;10502505;28;20552;-59
2020/12/30 00:35:49;;;;;;;4.93;3.60;;;16.10;68.70;;;;;;10502111;28;20366;-59
2020/12/30 00:40:49;;;;;;;5.03;3.40;;;16.10;68.00;;;;;;10502034;28;20488;-59
2020/12/30 00:45:50;;;;;;;5.45;3.72;;;16.10;68.20;;;;;;10493747;28;20059;-59
2020/12/30 00:50:51;;;;;;;5.15;3.90;;;16.10;67.50;;;;;;10501670;28;20120;-58
2020/12/30 00:55:51;;;;;;;6.20;4.00;;;16.00;67.20;;;;;;10500125;28;20552;-59
2020/12/30 01:00:52;;;;;;;4.80;3.25;;;16.00;67.10;;;;;;10501107;28;20060;-59
2020/12/30 01:05:53;;;;;;;5.72;4.60;;;16.00;67.10;;;;;;10500753;28;20115;-59
2020/12/30 01:10:54;;;;;;;5.95;3.53;;;15.90;67.00;;;;;;10500892;28;20488;-59
2020/12/30 01:15:55;;;;;;;5.35;3.78;;;15.90;66.80;;;;;;10500250;28;20147;-59
2020/12/30 01:21:03;;;;;;;5.13;3.72;;;15.90;66.80;;;;;;10490152;28;20104;-59
2020/12/30 01:26:03;;;;;;;5.93;3.40;;;15.90;66.60;;;;;;10500128;28;20043;-58
2020/12/30 01:31:04;;;;;;;5.78;3.53;;;15.90;66.70;;;;;;10499907;28;20499;-59
2020/12/30 01:36:05;;;;;;;4.45;3.08;;;15.90;66.70;;;;;;10499899;28;20468;-59
2020/12/30 01:41:06;;;;;;;4.80;3.20;;;15.80;66.60;;;;;;10499504;28;20024;-59
2020/12/30 01:46:07;;;;;;;4.15;3.35;;;15.80;66.60;;;;;;10499252;28;20454;-58
2020/12/30 01:51:08;;;;;;;5.45;3.67;;;15.80;66.60;;;;;;10499038;28;20480;-59
2020/12/30 01:56:09;;;;;;;4.28;3.22;;;15.70;66.60;;;;;;10498294;28;20032;-59
2020/12/30 02:01:11;;;;;;;5.13;4.15;;;15.70;66.60;;;;;;10506545;28;20085;-60
2020/12/30 02:06:12;;;;;;;4.85;3.22;;;15.70;66.50;;;;;;10498013;28;20099;-59
2020/12/30 02:11:13;;;;;;;4.95;3.38;;;15.70;66.50;;;;;;10498205;28;20040;-59
2020/12/30 02:16:13;;;;;;;5.22;3.78;;;15.60;66.40;;;;;;10497974;28;20025;-59
2020/12/30 02:21:14;;;;;;;6.40;4.00;;;15.60;66.40;;;;;;10497817;28;20086;-59
2020/12/30 02:26:15;;;;;;;6.05;3.88;;;15.60;66.40;;;;;;10497807;28;20103;-59
2020/12/30 02:31:16;;;;;;;4.93;3.92;;;15.60;66.40;;;;;;10497430;28;20477;-59
2020/12/30 02:36:16;;;;;;;5.43;3.83;;;15.60;66.30;;;;;;10497221;28;20402;-59
2020/12/30 02:41:17;;;;;;;5.28;3.83;;;15.60;66.40;;;;;;10497396;28;20120;-59
2020/12/30 02:46:18;;;;;;;3.90;3.20;;;15.50;66.30;;;;;;10495928;28;20526;-59
2020/12/30 02:51:19;;;;;;;4.45;3.65;;;15.50;66.20;;;;;;10496540;28;20020;-59
2020/12/30 02:56:21;;;;;;;5.43;4.05;;;15.50;66.20;;;;;;10496848;28;20021;-59
2020/12/30 03:01:21;;;;;;;5.22;3.60;;;15.50;66.20;;;;;;10496738;28;20531;-59
2020/12/30 03:06:26;;;;;;;4.78;3.42;;;15.50;66.20;;;;;;10496510;28;20020;-59
2020/12/30 03:11:26;;;;;;;5.07;3.60;;;15.40;66.20;;;;;;10496595;28;20056;-59
2020/12/30 03:16:27;;;;;;;4.88;3.45;;;15.40;66.20;;;;;;10496741;28;20016;-59
2020/12/30 03:21:28;;;;;;;6.75;4.55;;;15.40;66.10;;;;;;10496528;28;20067;-59
2020/12/30 03:26:32;;;;;;;4.75;4.03;;;15.40;66.20;;;;;;10496616;28;20052;-60
2020/12/30 03:31:32;;;;;;;6.47;3.95;;;15.40;66.10;;;;;;10496566;28;20361;-59
2020/12/30 03:36:33;;;;;;;4.53;3.63;;;15.40;66.10;;;;;;10495065;28;20040;-59
2020/12/30 03:41:34;;;;;;;5.68;3.80;;;15.40;66.20;;;;;;10495931;28;20108;-59
2020/12/30 03:46:34;;;;;;;4.38;3.72;;;15.30;66.10;;;;;;10496039;28;20459;-58
2020/12/30 03:51:35;;;;;;;4.90;3.80;;;15.30;66.10;;;;;;10495861;28;20138;-59
2020/12/30 03:56:35;;;;;;;6.82;3.83;;;15.30;66.10;;;;;;10495561;28;20112;-59
2020/12/30 04:01:36;;;;;;;4.50;3.30;;;15.30;66.10;;;;;;10498222;28;20512;-59
2020/12/30 04:06:37;;;;;;;4.78;3.85;;;15.20;66.00;;;;;;10503123;28;20127;-59
2020/12/30 04:11:38;;;;;;;5.05;3.92;;;15.30;66.00;;;;;;10501912;28;20091;-59
2020/12/30 04:16:38;;;;;;;4.90;3.45;;;15.20;66.00;;;;;;10502975;28;20033;-59
2020/12/30 04:21:39;;;;;;;5.38;3.92;;;15.20;66.00;;;;;;10502650;28;20167;-59
2020/12/30 04:26:40;;;;;;;5.32;3.80;;;15.20;66.00;;;;;;10502363;28;20082;-59
2020/12/30 04:31:40;;;;;;;4.80;3.60;;;15.20;66.00;;;;;;10498729;28;20034;-59
2020/12/30 04:36:41;;;;;;;7.43;4.53;;;15.20;66.00;;;;;;10502242;28;20115;-59
2020/12/30 04:41:43;;;;;;;5.57;3.78;;;15.10;65.90;;;;;;10501728;28;20103;-59
2020/12/30 04:46:45;;;;;;;5.18;3.88;;;15.10;66.00;;;;;;10500548;28;20149;-59
2020/12/30 04:51:46;;;;;;;6.07;4.57;;;15.10;66.00;;;;;;10501310;28;20073;-59
2020/12/30 04:57:00;;;;;;;4.70;3.78;;;15.10;66.00;;;;;;10499910;28;20028;-59
2020/12/30 05:02:11;;;;;;;4.53;3.72;;;15.00;65.90;;;;;;10501084;28;20024;-59
2020/12/30 05:07:14;;;;;;;5.82;4.47;;;15.00;65.90;;;;;;10501073;28;20016;-58
2020/12/30 05:12:18;;;;;;;6.10;4.28;;;15.00;65.90;;;;;;10500319;28;20060;-58
2020/12/30 05:17:19;;;;;;;5.93;3.80;;;15.00;66.00;;;;;;10500703;28;20115;-59
2020/12/30 05:22:20;;;;;;;6.05;5.15;;;15.00;66.00;;;;;;10500384;28;20104;-59
2020/12/30 05:27:23;;;;;;;6.30;4.32;;;15.00;65.90;;;;;;10500284;28;20012;-59
2020/12/30 05:32:25;;;;;;;5.75;4.57;;;15.00;66.00;;;;;;10498664;28;20033;-59
2020/12/30 05:37:32;;;;;;;6.78;4.18;;;15.00;66.00;;;;;;10499600;28;20029;-59
2020/12/30 05:42:33;;;;;;;4.30;3.60;;;14.90;65.90;;;;;;10499641;28;20032;-59
2020/12/30 05:47:34;;;;;;;5.45;3.90;;;14.90;66.00;;;;;;10499246;28;20099;-59
2020/12/30 05:52:34;;;;;;;4.68;3.83;;;14.90;66.00;;;;;;10499191;28;20064;-58
2020/12/30 05:57:37;;;;;;;4.97;3.80;;;14.90;65.90;;;;;;10498989;28;20024;-59
2020/12/30 06:02:46;;;;;;;4.25;3.50;;;15.00;66.00;;;;;;10493280;28;20032;-59
2020/12/30 06:07:53;;;;;;;5.18;3.97;;;15.10;65.70;;;;;;10498521;28;20024;-59
2020/12/30 06:12:59;;;;;;;4.90;3.80;;;15.30;65.30;;;;;;10498207;28;20488;-58
2020/12/30 06:18:10;;;;;;;4.93;3.65;;;15.50;64.70;;;;;;10498268;28;20067;-59
2020/12/30 06:23:14;;;;;;;4.63;3.00;;;15.70;64.20;;;;;;10496542;28;20036;-58
2020/12/30 06:28:21;;;;;;;4.57;3.08;;;15.90;64.20;;;;;;10492172;28;20025;-59
2020/12/30 06:33:22;;;;;;;7.18;3.60;;;16.10;64.10;;;;;;10497692;28;20032;-59
2020/12/30 06:38:29;;;;;;;3.63;2.47;;;16.20;63.70;;;;;;10490613;28;20108;-60
2020/12/30 06:43:46;;;;;;;6.10;2.67;;;16.30;63.50;;;;;;10481753;28;20037;-60
2020/12/30 06:49:02;;;;;;;8.40;3.40;;;16.40;63.60;;;;;;10492340;28;20027;-59
2020/12/30 06:54:03;;;;;;;5.03;3.17;;;16.50;64.00;;;;;;10494170;28;20035;-60
2020/12/30 06:59:06;;;;;;;9.27;3.00;;;16.60;64.90;;;;;;10495429;28;20025;-59
2020/12/30 07:04:08;;;;;;;5.63;2.63;;;16.70;65.00;;;;;;10493544;28;20028;-60
2020/12/30 07:09:08;;;;;;;9.82;3.15;;;16.70;64.70;;;;;;10494411;28;20081;-61
2020/12/30 07:14:23;;;;;;;23.95;4.93;;;16.80;64.00;;;;;;10493288;28;20053;-61
2020/12/30 07:19:35;;;;;;;37.60;7.57;;;16.80;63.40;;;;;;10492919;28;20033;-62
2020/12/30 07:24:40;;;;;;;23.05;5.63;;;16.80;63.50;;;;;;10482021;28;20032;-62
2020/12/30 07:29:47;;;;;;;17.85;4.55;;;16.80;63.60;;;;;;10492783;28;20107;-61
2020/12/30 07:34:52;;;;;;;17.98;5.55;;;16.70;63.80;;;;;;10490368;28;20059;-60
2020/12/30 07:39:53;;;;;;;20.88;4.95;;;16.70;63.90;;;;;;10496535;28;20059;-60
2020/12/30 07:44:58;;;;;;;20.88;4.85;;;16.70;64.10;;;;;;10502786;28;20064;-62
2020/12/30 07:50:04;;;;;;;19.77;5.40;;;16.70;64.40;;;;;;10502504;28;20028;-62
2020/12/30 07:55:05;;;;;;;19.13;4.50;;;16.80;65.40;;;;;;10503647;28;20107;-61
2020/12/30 08:00:06;;;;;;;14.30;5.30;;;16.70;64.80;;;;;;10500778;28;20115;-61
2020/12/30 08:05:06;;;;;;;14.02;4.38;;;16.70;65.00;;;;;;10501583;28;20111;-62
2020/12/30 08:10:08;;;;;;;15.50;4.35;;;16.70;65.00;;;;;;10499587;28;20108;-62
2020/12/30 08:15:11;;;;;;;11.15;3.85;;;16.80;65.40;;;;;;10498187;28;20075;-61
2020/12/30 08:20:14;;;;;;;14.23;4.30;;;16.80;65.20;;;;;;10499866;28;20028;-61
2020/12/30 08:25:16;;;;;;;13.32;3.78;;;16.70;65.30;;;;;;10468816;28;20029;-60
2020/12/30 08:30:17;;;;;;;14.65;3.58;;;16.70;65.00;;;;;;10510725;28;20024;-61
2020/12/30 08:35:30;;;;;;;11.88;4.35;;;16.70;65.10;;;;;;10490466;28;20060;-59
2020/12/30 08:40:35;;;;;;;8.35;3.83;;;16.80;64.90;;;;;;10501621;28;20068;-60
2020/12/30 08:45:47;;;;;;;13.32;4.38;;;16.80;64.50;;;;;;10502375;28;20396;-61
2020/12/30 08:50:50;;;;;;;12.35;4.50;;;16.70;64.20;;;;;;10496287;28;20033;-61
2020/12/30 08:55:54;;;;;;;10.20;4.68;;;16.80;64.00;;;;;;10501215;28;20048;-61
2020/12/30 09:00:55;;;;;;;7.25;3.75;;;16.80;63.90;;;;;;10500776;28;20040;-61
2020/12/30 09:05:58;;;;;;;8.43;3.42;;;16.80;63.80;;;;;;10500599;28;20017;-61
2020/12/30 09:10:59;;;;;;;8.35;3.78;;;16.80;63.50;;;;;;10500375;28;20467;-61
2020/12/30 09:16:05;;;;;;;7.45;3.60;;;16.80;63.40;;;;;;10499231;28;20321;-61
2020/12/30 09:21:25;;;;;;;8.57;3.90;;;16.80;63.50;;;;;;10500153;28;20039;-61
2020/12/30 09:26:29;;;;;;;7.70;3.30;;;16.80;63.30;;;;;;10499846;28;20027;-61
2020/12/30 09:31:30;;;;;;;9.40;3.88;;;16.80;63.40;;;;;;10499909;28;20691;-61
2020/12/30 09:36:31;;;;;;;8.65;4.28;;;16.80;63.30;;;;;;10498085;28;20044;-61
2020/12/30 09:41:31;;;;;;;7.03;3.38;;;16.80;63.30;;;;;;10499417;28;20025;-61
2020/12/30 09:46:32;;;;;;;4.40;3.20;;;16.80;63.30;;;;;;10499023;28;20029;-61
2020/12/30 09:51:33;;;;;;;7.45;3.03;;;16.80;63.20;;;;;;10499505;28;20111;-61
2020/12/30 09:56:33;;;;;;;10.15;3.75;;;16.80;63.20;;;;;;10498621;28;20119;-60
2020/12/30 10:01:34;;;;;;;3.90;2.55;;;16.80;63.10;;;;;;10491382;28;20131;-61
2020/12/30 10:06:35;;;;;;;8.95;3.15;;;16.80;63.10;;;;;;10497998;28;20111;-60
2020/12/30 10:11:35;;;;;;;4.97;3.10;;;16.80;63.00;;;;;;10474174;28;20048;-61
2020/12/30 10:16:36;;;;;;;4.53;3.30;;;16.80;63.00;;;;;;10497678;28;20540;-61
2020/12/30 10:21:37;;;;;;;5.10;3.00;;;16.80;62.90;;;;;;10497499;28;20380;-61
2020/12/30 10:26:37;;;;;;;7.05;3.08;;;16.80;62.90;;;;;;10496250;28;20611;-61
2020/12/30 10:31:38;;;;;;;3.58;2.30;;;16.80;62.90;;;;;;10512910;28;20199;-61
2020/12/30 10:36:42;;;;;;;5.80;2.70;;;16.80;62.70;;;;;;10497235;28;20374;-60
2020/12/30 10:41:43;;;;;;;6.22;2.78;;;16.80;62.80;;;;;;10496773;28;20028;-60
2020/12/30 10:46:46;;;;;;;6.95;3.70;;;16.70;62.90;;;;;;10496969;28;20021;-64
2020/12/30 10:51:48;;;;;;;5.93;2.88;;;16.80;62.90;;;;;;10496836;28;20484;-65
2020/12/30 10:56:51;;;;;;;10.27;3.45;;;16.80;63.50;;;;;;10497501;28;20341;-65
2020/12/30 11:01:54;;;;;;;12.35;3.47;;;16.80;63.70;;;;;;10502032;28;20036;-66
2020/12/30 11:06:54;;;;;;;7.53;3.53;;;16.80;63.90;;;;;;10496274;28;20104;-62
2020/12/30 11:11:55;;;;;;;15.23;3.72;;;16.80;63.80;;;;;;10496011;28;20517;-66
2020/12/30 11:16:56;;;;;;;8.65;3.33;;;16.80;64.00;;;;;;10496276;28;20035;-66
2020/12/30 11:21:57;;;;;;;9.15;3.70;;;16.80;64.50;;;;;;10495900;28;20061;-65
2020/12/30 11:26:57;;;;;;;14.70;4.28;;;17.00;64.60;;;;;;10496336;28;20103;-63
2020/12/30 11:31:58;;;;;;;13.43;3.70;;;17.10;65.30;;;;;;10494661;28;20075;-64
2020/12/30 11:36:59;;;;;;;10.60;3.90;;;17.10;65.30;;;;;;10495786;28;20503;-64
2020/12/30 11:42:00;;;;;;;12.00;3.50;;;17.20;65.30;;;;;;10495725;28;20037;-63
2020/12/30 11:47:00;;;;;;;9.88;2.90;;;17.20;65.30;;;;;;10495586;28;20028;-64
2020/12/30 11:52:01;;;;;;;12.93;3.72;;;17.20;65.40;;;;;;10484994;28;20056;-62
2020/12/30 11:57:02;;;;;;;9.02;2.70;;;17.20;65.40;;;;;;10495188;28;20026;-61
2020/12/30 12:02:03;;;;;;;10.02;3.13;;;17.20;65.30;;;;;;10495424;28;20115;-63
2020/12/30 12:07:04;;;;;;;14.68;3.28;;;17.20;65.10;;;;;;10495277;28;20385;-65
2020/12/30 12:12:04;;;;;;;13.98;4.60;;;17.20;65.10;;;;;;10495098;28;20048;-66
2020/12/30 12:17:06;;;;;;;7.15;3.40;;;17.20;65.40;;;;;;10493922;28;20509;-64
2020/12/30 12:22:07;;;;;;;19.10;3.75;;;17.10;65.40;;;;;;10477004;28;20023;-61
2020/12/30 12:27:08;;;;;;;6.68;2.78;;;17.10;65.60;;;;;;10499195;28;20028;-61
2020/12/30 12:32:22;;;;;;;12.98;2.97;;;17.20;65.60;;;;;;10499473;28;20020;-61
2020/12/30 12:37:25;;;;;;;9.90;2.75;;;17.20;65.50;;;;;;10485510;28;20032;-61
2020/12/30 12:42:26;;;;;;;9.15;2.75;;;17.20;65.40;;;;;;10498084;28;20086;-60
2020/12/30 12:47:27;;;;;;;11.27;2.95;;;17.20;65.40;;;;;;10500871;28;20109;-63
2020/12/30 12:52:27;;;;;;;14.05;3.55;;;17.20;65.70;;;;;;10501217;28;20397;-63
2020/12/30 12:57:28;;;;;;;14.63;3.22;;;17.20;65.60;;;;;;10501422;28;20070;-62
2020/12/30 13:02:29;;;;;;;11.80;3.15;;;17.20;65.20;;;;;;10501114;28;20441;-62
2020/12/30 13:07:29;;;;;;;8.88;2.80;;;17.20;65.00;;;;;;10496631;28;20052;-62
2020/12/30 13:12:30;;;;;;;11.27;3.17;;;17.20;64.80;;;;;;10500541;28;20083;-62
2020/12/30 13:17:31;;;;;;;8.07;2.95;;;17.20;64.70;;;;;;10500624;28;20024;-62
2020/12/30 13:22:32;;;;;;;6.13;2.28;;;17.20;64.40;;;;;;10482446;28;20094;-62
2020/12/30 13:27:32;;;;;;;5.90;2.08;;;17.30;64.20;;;;;;10500414;28;20437;-63
2020/12/30 13:32:33;;;;;;;7.53;2.45;;;17.30;64.20;;;;;;10483842;28;20519;-63
2020/12/30 13:37:35;;;;;;;7.97;2.40;;;17.30;64.00;;;;;;10495237;28;20119;-63
2020/12/30 13:42:35;;;;;;;6.93;2.53;;;17.30;64.00;;;;;;10499335;28;20024;-63
2020/12/30 13:47:36;;;;;;;14.77;2.53;;;17.30;63.90;;;;;;10498335;28;20096;-62
2020/12/30 13:52:36;;;;;;;5.28;2.63;;;17.30;63.90;;;;;;10497824;28;20120;-62
2020/12/30 13:57:37;;;;;;;6.85;2.33;;;17.30;63.90;;;;;;10497543;28;20111;-63
2020/12/30 14:02:38;;;;;;;5.00;1.83;;;17.30;63.80;;;;;;10486758;28;20466;-59
2020/12/30 14:07:39;;;;;;;5.78;2.33;;;17.30;63.90;;;;;;10496658;28;20407;-63
2020/12/30 14:12:40;;;;;;;9.85;2.13;;;17.30;63.70;;;;;;10497937;28;20067;-63
2020/12/30 14:17:41;;;;;;;10.38;2.25;;;17.30;63.80;;;;;;10498077;28;20042;-62
2020/12/30 14:22:41;;;;;;;9.77;2.38;;;17.30;63.70;;;;;;10497741;28;20121;-64
2020/12/30 14:27:42;;;;;;;10.35;3.00;;;17.30;63.70;;;;;;10497673;28;20480;-61
2020/12/30 14:32:43;;;;;;;10.68;2.90;;;17.30;64.00;;;;;;10497311;28;20098;-63
2020/12/30 14:37:43;;;;;;;12.88;2.45;;;17.30;64.30;;;;;;10497417;28;20104;-63
2020/12/30 14:42:44;;;;;;;11.98;2.20;;;17.30;64.50;;;;;;10496110;28;20445;-64
2020/12/30 14:47:48;;;;;;;7.55;2.13;;;17.40;64.70;;;;;;10495608;28;20028;-63
2020/12/30 14:52:52;;;;;;;10.88;3.47;;;17.40;64.70;;;;;;10496758;28;20085;-63
2020/12/30 14:57:53;;;;;;;7.22;2.53;;;17.40;64.70;;;;;;10495217;28;20028;-62
2020/12/30 15:02:55;;;;;;;12.30;4.18;;;17.40;64.80;;;;;;10496412;28;20441;-63
2020/12/30 15:07:56;;;;;;;8.77;2.83;;;17.30;64.50;;;;;;10494747;28;20112;-63
2020/12/30 15:12:56;;;;;;;12.25;2.35;;;17.40;64.60;;;;;;10496037;28;20486;-65
2020/12/30 15:17:57;;;;;;;9.45;2.58;;;17.30;64.60;;;;;;10496106;28;20103;-62
2020/12/30 15:22:58;;;;;;;8.35;2.25;;;17.40;64.80;;;;;;10498345;28;20070;-62
2020/12/30 15:27:58;;;;;;;6.15;2.17;;;17.40;64.70;;;;;;10492816;28;20020;-62
2020/12/30 15:32:59;;;;;;;12.77;2.10;;;17.40;64.80;;;;;;10501534;28;20133;-63
2020/12/30 15:38:00;;;;;;;15.82;3.80;;;17.40;64.70;;;;;;10495798;28;20043;-61
2020/12/30 15:43:01;;;;;;;9.38;1.92;;;17.40;64.90;;;;;;10495902;28;20103;-62
2020/12/30 15:48:01;;;;;;;16.83;2.58;;;17.40;64.90;;;;;;10494056;28;20028;-61
2020/12/30 15:53:02;;;;;;;10.63;2.50;;;17.40;64.80;;;;;;10494256;28;20189;-62
2020/12/30 15:58:03;;;;;;;7.80;2.13;;;17.40;64.80;;;;;;10500046;28;20380;-61
2020/12/30 16:03:04;;;;;;;9.30;2.30;;;17.40;64.70;;;;;;10501004;28;20078;-61
2020/12/30 16:08:05;;;;;;;16.38;2.25;;;17.40;64.70;;;;;;10501547;28;20560;-63
2020/12/30 16:13:05;;;;;;;11.10;2.90;;;17.40;64.80;;;;;;10500603;28;20127;-62
2020/12/30 16:18:06;;;;;;;7.10;2.28;;;17.40;64.80;;;;;;10500531;28;20059;-61
2020/12/30 16:23:07;;;;;;;10.23;2.60;;;17.40;64.90;;;;;;10502198;28;20056;-63
2020/12/30 16:28:08;;;;;;;10.93;2.03;;;17.50;64.90;;;;;;10500070;28;20016;-63
2020/12/30 16:33:09;;;;;;;10.05;2.70;;;17.70;65.10;;;;;;10500559;28;20036;-65
2020/12/30 16:38:10;;;;;;;9.95;3.03;;;17.70;65.00;;;;;;10501578;28;20024;-64
2020/12/30 16:43:10;;;;;;;10.00;2.22;;;17.90;65.80;;;;;;10500802;28;20035;-64
2020/12/30 16:48:11;;;;;;;11.45;2.45;;;18.00;64.70;;;;;;10499284;28;20044;-59
2020/12/30 16:53:12;;;;;;;5.93;1.70;;;18.10;64.40;;;;;;10501052;28;20456;-62
2020/12/30 16:58:13;;;;;;;10.77;1.88;;;18.20;62.90;;;;;;10501664;28;20062;-62
2020/12/30 17:03:13;;;;;;;9.05;2.47;;;18.30;61.80;;;;;;10491904;28;20028;-63
2020/12/30 17:08:14;;;;;;;9.20;3.50;;;18.30;61.50;;;;;;10499703;28;20403;-63
2020/12/30 17:13:15;;;;;;;6.38;3.10;;;18.40;60.60;;;;;;10496116;28;20518;-62
2020/12/30 17:18:15;;;;;;;9.90;3.15;;;18.30;65.70;;;;;;10500538;28;20120;-63
2020/12/30 17:23:16;;;;;;;9.55;2.90;;;18.40;64.00;;;;;;10499846;28;20473;-63
2020/12/30 17:28:17;;;;;;;14.23;2.50;;;18.40;65.00;;;;;;10500138;28;20086;-63
2020/12/30 17:33:18;;;;;;;7.53;2.78;;;18.50;64.60;;;;;;10499999;28;20520;-63
2020/12/30 17:38:18;;;;;;;8.15;2.45;;;18.60;64.70;;;;;;10498546;28;20108;-62
2020/12/30 17:43:19;;;;;;;4.28;1.65;;;18.60;64.00;;;;;;10499073;28;20036;-62
2020/12/30 17:48:20;;;;;;;8.63;1.80;;;18.70;63.90;;;;;;10486088;28;20066;-62
2020/12/30 17:53:21;;;;;;;5.20;1.67;;;18.70;63.60;;;;;;10498856;28;20035;-63
2020/12/30 17:58:22;;;;;;;7.18;2.05;;;18.70;63.50;;;;;;10498100;28;20039;-63
2020/12/30 18:03:23;;;;;;;4.30;1.83;;;18.70;63.30;;;;;;10498097;28;20036;-63
2020/12/30 18:08:24;;;;;;;4.80;1.95;;;18.80;62.60;;;;;;10498437;28;20024;-62
2020/12/30 18:13:25;;;;;;;4.78;1.88;;;18.80;62.70;;;;;;10497064;28;20040;-63
2020/12/30 18:18:25;;;;;;;5.82;1.90;;;18.80;62.90;;;;;;10496682;28;20111;-63
2020/12/30 18:23:26;;;;;;;3.97;2.05;;;19.00;63.10;;;;;;10496065;28;20116;-64
2020/12/30 18:28:28;;;;;;;7.60;1.90;;;19.00;63.00;;;;;;10497570;28;20091;-64
2020/12/30 18:33:28;;;;;;;5.13;1.75;;;19.10;63.00;;;;;;10493779;28;20055;-63
2020/12/30 18:38:29;;;;;;;3.88;2.00;;;19.10;62.80;;;;;;10491836;28;20115;-64
2020/12/30 18:43:30;;;;;;;6.57;1.58;;;18.90;63.00;;;;;;10487755;28;20107;-64
2020/12/30 18:48:31;;;;;;;3.95;1.35;;;18.90;63.50;;;;;;10495498;28;20111;-64
2020/12/30 18:53:32;;;;;;;7.53;1.75;;;18.80;63.50;;;;;;10495900;28;20653;-65
2020/12/30 18:58:32;;;;;;;4.03;1.70;;;18.80;63.60;;;;;;10486561;28;20119;-63
2020/12/30 19:03:34;;;;;;;5.57;1.60;;;18.80;63.70;;;;;;10475646;28;20025;-63
2020/12/30 19:08:35;;;;;;;2.42;1.02;;;18.80;63.80;;;;;;10467188;28;20108;-63
2020/12/30 19:13:36;;;;;;;5.43;1.80;;;18.80;63.60;;;;;;10462589;28;20393;-63
2020/12/30 19:18:37;;;;;;;7.10;1.75;;;18.80;63.60;;;;;;10457920;28;20032;-64
2020/12/30 19:23:37;;;;;;;3.75;1.33;;;18.80;63.60;;;;;;10468607;28;20025;-62
2020/12/30 19:28:38;;;;;;;5.18;1.80;;;18.90;63.60;;;;;;10463456;28;20033;-62
2020/12/30 19:33:39;;;;;;;4.50;1.63;;;18.90;63.20;;;;;;10471670;28;20029;-62
2020/12/30 19:38:41;;;;;;;3.00;1.40;;;18.80;63.00;;;;;;10472001;28;20485;-61
2020/12/30 19:43:42;;;;;;;2.92;1.30;;;18.80;62.90;;;;;;10471062;28;20026;-64
2020/12/30 19:48:43;;;;;;;5.05;1.27;;;18.80;63.20;;;;;;10505108;28;20033;-63
2020/12/30 19:53:44;;;;;;;2.38;1.40;;;18.80;63.30;;;;;;10486370;28;20086;-64
2020/12/30 19:58:47;;;;;;;2.50;1.45;;;18.80;63.40;;;;;;10470132;28;20485;-64
2020/12/30 20:03:48;;;;;;;3.13;1.35;;;18.80;63.40;;;;;;10471405;28;20029;-62
2020/12/30 20:08:49;;;;;;;2.15;1.30;;;18.80;63.30;;;;;;10475417;28;20112;-63
2020/12/30 20:13:53;;;;;;;2.42;1.27;;;18.70;63.50;;;;;;10468823;28;20048;-64
2020/12/30 20:18:53;;;;;;;3.90;1.42;;;18.70;63.60;;;;;;10465264;28;20029;-64
2020/12/30 20:23:55;;;;;;;4.43;1.63;;;18.60;63.90;;;;;;10474650;28;20037;-59
2020/12/30 20:28:56;;;;;;;2.78;1.50;;;18.50;64.40;;;;;;10492433;28;20036;-62
2020/12/30 20:33:58;;;;;;;3.05;1.50;;;18.40;64.40;;;;;;10480157;28;20028;-63
2020/12/30 20:38:59;;;;;;;3.38;1.20;;;18.30;64.70;;;;;;10482582;28;20024;-65
2020/12/30 20:43:59;;;;;;;5.53;1.75;;;18.30;64.70;;;;;;10494707;28;20050;-64
2020/12/30 20:49:00;;;;;;;2.67;1.58;;;18.10;64.50;;;;;;10497107;28;20159;-64
2020/12/30 20:54:01;;;;;;;6.38;1.55;;;18.00;64.50;;;;;;10498304;28;20123;-64
2020/12/30 20:59:01;;;;;;;5.97;1.98;;;17.80;64.80;;;;;;10483740;28;20032;-64
2020/12/30 21:04:02;;;;;;;4.57;1.73;;;17.80;64.80;;;;;;10498431;28;20448;-64
2020/12/30 21:09:04;;;;;;;5.20;1.60;;;17.70;64.80;;;;;;10498263;28;20027;-64
2020/12/30 21:14:05;;;;;;;3.72;1.80;;;17.60;64.90;;;;;;10499136;28;20127;-64
2020/12/30 21:19:06;;;;;;;3.95;2.45;;;17.60;65.10;;;;;;10499147;28;20028;-64
2020/12/30 21:24:08;;;;;;;2.75;1.67;;;17.50;65.10;;;;;;10496886;28;20173;-64
2020/12/30 21:29:08;;;;;;;3.10;1.75;;;17.40;65.20;;;;;;10497749;28;20031;-64
2020/12/30 21:34:09;;;;;;;2.40;1.40;;;17.40;65.30;;;;;;10497807;28;20115;-64
2020/12/30 21:39:10;;;;;;;3.08;1.75;;;17.30;65.30;;;;;;10499241;28;20444;-64
2020/12/30 21:44:11;;;;;;;3.03;1.90;;;17.20;65.30;;;;;;10499190;28;20029;-64
2020/12/30 21:49:12;;;;;;;2.30;1.60;;;17.20;65.40;;;;;;10498614;28;20103;-64
2020/12/30 21:54:13;;;;;;;3.25;1.90;;;17.10;65.40;;;;;;10494677;28;20552;-64
2020/12/30 21:59:15;;;;;;;2.58;1.63;;;17.10;65.50;;;;;;10496316;28;20100;-64
2020/12/30 22:04:15;;;;;;;3.97;1.70;;;17.10;65.50;;;;;;10498092;28;20104;-64
2020/12/30 22:09:20;;;;;;;3.40;2.00;;;17.00;65.50;;;;;;10498050;28;20031;-64
2020/12/30 22:14:22;;;;;;;3.00;2.08;;;16.90;65.50;;;;;;10497261;28;20055;-64
2020/12/30 22:19:23;;;;;;;1.85;1.60;;;16.90;66.20;;;;;;10497763;28;20075;-64
2020/12/30 22:24:23;;;;;;;4.50;2.17;;;16.90;65.70;;;;;;10496348;28;20040;-64
2020/12/30 22:29:24;;;;;;;3.53;2.13;;;16.80;65.70;;;;;;10496917;28;20112;-64
2020/12/30 22:34:25;;;;;;;2.45;1.80;;;16.80;66.30;;;;;;10496970;28;20114;-64
2020/12/30 22:39:25;;;;;;;2.63;1.42;;;16.80;65.80;;;;;;10496901;28;20024;-64
2020/12/30 22:44:27;;;;;;;2.55;1.75;;;16.70;65.80;;;;;;10496909;28;20073;-64
2020/12/30 22:49:28;;;;;;;3.60;1.80;;;16.60;65.70;;;;;;10494872;28;20032;-64
2020/12/30 22:54:29;;;;;;;4.63;2.15;;;16.60;65.70;;;;;;10496787;28;20068;-64
2020/12/30 22:59:30;;;;;;;3.45;1.92;;;16.60;65.80;;;;;;10494186;28;20048;-64
2020/12/30 23:04:32;;;;;;;4.28;2.28;;;16.50;65.80;;;;;;10495852;28;20037;-64
2020/12/30 23:09:33;;;;;;;2.95;2.00;;;16.50;65.80;;;;;;10495313;28;20143;-64
2020/12/30 23:14:33;;;;;;;5.32;1.88;;;16.50;65.80;;;;;;10495726;28;20556;-64
2020/12/30 23:19:36;;;;;;;2.20;1.70;;;16.50;65.90;;;;;;10495817;28;20024;-64
2020/12/30 23:24:37;;;;;;;3.42;2.05;;;16.40;65.90;;;;;;10495936;28;20033;-63
2020/12/30 23:29:37;;;;;;;3.40;2.00;;;16.40;66.00;;;;;;10495794;28;20039;-64
2020/12/30 23:34:39;;;;;;;2.90;2.00;;;16.40;66.00;;;;;;10495766;28;20043;-64
2020/12/30 23:39:39;;;;;;;2.60;1.58;;;16.30;66.00;;;;;;10495744;28;20453;-64
2020/12/30 23:44:43;;;;;;;4.20;2.05;;;16.30;66.00;;;;;;10495448;28;20112;-64
2020/12/30 23:49:43;;;;;;;3.22;1.85;;;16.30;66.00;;;;;;10495483;28;20052;-64
2020/12/30 23:54:48;;;;;;;2.33;1.63;;;16.30;66.00;;;;;;10495465;28;20032;-64
2020/12/30 23:59:49;;;;;;;3.55;2.38;;;16.20;65.90;;;;;;10494298;28;20032;-64
